AirNav   Air Wisconsin Up To $57,000 Bonus
 
 1076 users online  

NK58 Gibraltar Heliport
Hamburg, New York, USA

GOING TO HAMBURG?


FAA INFORMATION EFFECTIVE 22 APRIL 2021

Location

FAA Identifier: NK58
Lat/Long: 42-31-42.2190N 078-54-26.1200W
42-31.703650N 078-54.435333W
42.5283942,-78.9072556
(estimated)
Elevation: 770 ft. / 235 m (estimated)
Variation: 09W (1985)
From city: 5 miles NW of HAMBURG, NY
Time zone: UTC -4 (UTC -5 during Standard Time)
Zip code: 14091

Heliport Operations

Heliport use: Private use. Permission required prior to landing
Activation date: 11/1982
Control tower: no
ARTCC: CLEVELAND CENTER
FSS: BUFFALO FLIGHT SERVICE STATION
Attendance: 0800-1800
Wind indicator: yes
Segmented circle: no

Heliport Communications

UNICOM: 123.05
WX ASOS at DKK (16 nm W): 119.275 (716-366-7664)

Nearby radio navigation aids

VOR radial/distance  VOR name  Freq  Var
JHWr032/22.5JAMESTOWN VOR/DME114.7007W
BUFr214/26.6BUFFALO VOR/DME116.4008W

Heliport Services

Fuel available: A

Runway Information

Helipad H1

Dimensions: 60 x 60 ft. / 18 x 18 m
Surface: concrete
Latitude: 42-31.703650N
Longitude: 078-54.435333W
Elevation: 770.0 ft.
Traffic pattern: leftleft

Heliport Ownership and Management from official FAA records

Ownership: Privately-owned
Owner: THE V ASSOCIATED LTD
2813 WEHRLE DR. STE 14
BUFFALO, NY 14221-7384
Phone (716) 312-0601
EXT 241.
Manager: PATTY MENZA
75 ELMVIEW AVE
HAMBURG, NY 14075
Phone (716) 312-0601
EXT 229.

Heliport Operational Statistics

Aircraft based on the field: 2
Helicopters: 2
    

Additional Remarks

FOR CD CTC CLEVELAND ARTCC AT 440-774-0490.

Instrument Procedures

There are no published instrument procedures at NK58.

Some nearby airports with instrument procedures:

KDKK - Chautauqua County/Dunkirk Airport (16 nm W)
9G0 - Buffalo Airfield (22 nm NE)
KBUF - Buffalo Niagara International Airport (26 nm N)
KJHW - Chautauqua County/Jamestown Airport (27 nm SW)
KOLE - Cattaraugus County-Olean Airport (29 nm SE)
 
Loc | Ops | Rwys | IFR | FBO | Links
Com | Nav | Svcs | Stats | Notes
Area around NK58 (Gibraltar Heliport)
 
Road maps at: MapQuest Bing Google
 
Aerial photo
No photo
 
Sectional chart

 
Airport distance calculator
Flying to Gibraltar Heliport? Find the distance to fly.

From to NK58

Sunrise and sunset
Times for 16-May-2021
 Local
(UTC-4)
 Zulu
(UTC)
Morning civil twilight05:2109:21
Sunrise05:5409:54
Sunset20:3000:30
Evening civil twilight21:0301:03

Current date and time
Zulu (UTC)  17-May-2021 01:48:12
Local (UTC-4)  16-May-2021 21:48:12
 
METAR
KDKK 
17nm W 
170053Z AUTO 00000KT 10SM CLR 13/06 A3022 RMK AO2 SLP234 T01330056 $
CWPC 
25nm NW 
170000Z AUTO 27010KT 14/08 RMK AO1 SLP235 T01410078 58003
KBUF 
25nm N 
170054Z 21006KT 10SM FEW120 FEW200 SCT250 16/02 A3021 RMK AO2 SLP231 T01560022 $
KJHW 
29nm SW 
170056Z AUTO 34006KT 10SM BKN075 14/01 A3024 RMK AO2 SLP244 T01440011
KOLE 
30nm SE 
170135Z AUTO 00000KT 10SM BKN100 12/03 A3025 RMK AO2
TAF
KBUF 
25nm N 
162112Z 1621/1718 23005KT P6SM FEW050 SCT150 FM162300 VRB05KT P6SM SCT250 FM171700 23008KT P6SM SCT100
KJHW 
29nm SW 
162112Z 1621/1718 VRB05KT P6SM BKN080 FM170000 VRB05KT P6SM SCT150 TEMPO 1707/1711 3SM BR
NOTAMs
Click for the latest NOTAMs
NOTAMs are issued by the DoD/FAA and will open in a separate window not controlled by AirNav.

 

 
 

Would you like to see your business listed on this page?

 If your business provides an interesting product or service to pilots, flight crews, aircraft, or users of the Gibraltar Heliport, you should consider listing it here.  To start the listing process, click on the button below
 
Add a business
 

Other Pages about Gibraltar Heliport

Update a link
 
Copyright © AirNav, LLC. All rights reserved. Privacy Policy  Contact